createdAt,value
2017-08-01T00:00:25.890Z,0
2017-08-01T00:01:06.405Z,0
2017-08-01T00:01:46.953Z,0
2017-08-01T00:02:27.493Z,0
2017-08-01T00:03:08.025Z,0
2017-08-01T00:03:48.560Z,0
2017-08-01T00:04:29.105Z,0
2017-08-01T00:05:09.640Z,0
2017-08-01T00:05:50.185Z,0
2017-08-01T00:06:30.706Z,0
2017-08-01T00:07:11.247Z,0
2017-08-01T00:07:51.778Z,0
2017-08-01T00:08:32.304Z,0
2017-08-01T00:09:12.852Z,0
2017-08-01T00:09:53.375Z,0
2017-08-01T00:10:33.911Z,0
2017-08-01T00:11:14.458Z,0
2017-08-01T00:11:54.992Z,0
2017-08-01T00:12:35.535Z,0
2017-08-01T00:13:16.060Z,0
2017-08-01T00:13:56.599Z,0
2017-08-01T00:14:37.141Z,0
2017-08-01T00:15:17.671Z,0
2017-08-01T00:15:58.206Z,0
2017-08-01T00:16:38.745Z,0
2017-08-01T00:17:19.276Z,0
2017-08-01T00:17:59.810Z,0
2017-08-01T00:18:40.353Z,0
2017-08-01T00:19:20.893Z,0
2017-08-01T00:20:01.475Z,0
2017-08-01T00:20:42.033Z,0
2017-08-01T00:21:22.563Z,0
2017-08-01T00:22:03.182Z,0
2017-08-01T00:22:43.793Z,0
2017-08-01T00:23:24.333Z,0
2017-08-01T00:24:04.874Z,0
2017-08-01T00:24:45.414Z,0
2017-08-01T00:25:25.953Z,0
2017-08-01T00:26:06.491Z,0
2017-08-01T00:26:47.030Z,0
2017-08-01T00:27:27.574Z,0
2017-08-01T00:28:08.111Z,0
2017-08-01T00:28:48.653Z,0
2017-08-01T00:29:29.201Z,0
2017-08-01T00:30:09.740Z,0
2017-08-01T00:30:50.278Z,0
2017-08-01T00:31:30.821Z,0
2017-08-01T00:32:11.355Z,0
2017-08-01T00:32:51.897Z,0
2017-08-01T00:33:32.452Z,0
2017-08-01T00:34:12.967Z,0
2017-08-01T00:34:53.496Z,0
2017-08-01T00:35:34.029Z,0
2017-08-01T00:36:14.575Z,0
2017-08-01T00:36:55.114Z,0
2017-08-01T00:37:35.656Z,0
2017-08-01T00:38:16.195Z,0
2017-08-01T00:38:56.744Z,0
2017-08-01T00:39:37.288Z,0
2017-08-01T00:40:17.829Z,0
2017-08-01T00:40:58.357Z,0
2017-08-01T00:41:38.900Z,0
2017-08-01T00:42:19.440Z,0
2017-08-01T00:42:59.980Z,0
2017-08-01T00:43:40.520Z,0
2017-08-01T00:44:21.062Z,0
2017-08-01T00:45:01.600Z,0
2017-08-01T00:45:42.147Z,0
2017-08-01T00:46:22.683Z,0
2017-08-01T00:47:03.222Z,0
2017-08-01T00:47:43.760Z,0
2017-08-01T00:48:24.301Z,0
2017-08-01T00:49:04.837Z,0
2017-08-01T00:49:45.383Z,0
2017-08-01T00:50:25.925Z,0
2017-08-01T00:51:06.466Z,0
2017-08-01T00:51:47.004Z,0
2017-08-01T00:52:27.547Z,0
2017-08-01T00:53:08.083Z,0
2017-08-01T00:53:48.611Z,0
2017-08-01T00:54:29.154Z,0
2017-08-01T00:55:09.683Z,0
2017-08-01T00:55:50.220Z,0
2017-08-01T00:56:30.766Z,0
2017-08-01T00:57:11.307Z,0
2017-08-01T00:57:51.848Z,0
2017-08-01T00:58:32.391Z,0
2017-08-01T00:59:12.925Z,0
2017-08-01T00:59:53.461Z,0
2017-08-01T01:00:34.008Z,0
2017-08-01T01:01:14.549Z,0
2017-08-01T01:01:55.081Z,0
2017-08-01T01:02:35.607Z,0
2017-08-01T01:03:16.137Z,0
2017-08-01T01:03:56.678Z,0
2017-08-01T01:04:37.216Z,0
2017-08-01T01:05:17.750Z,0
2017-08-01T01:05:58.285Z,0
2017-08-01T01:06:38.830Z,0
2017-08-01T01:07:19.369Z,0
2017-08-01T01:07:59.909Z,0
2017-08-01T01:08:40.453Z,0
2017-08-01T01:09:20.988Z,0
2017-08-01T01:10:01.528Z,0
2017-08-01T01:10:42.065Z,0
2017-08-01T01:11:22.611Z,0
2017-08-01T01:12:03.157Z,0
2017-08-01T01:12:43.699Z,0
2017-08-01T01:13:24.231Z,0
2017-08-01T01:14:04.775Z,0
2017-08-01T01:14:45.312Z,0
2017-08-01T01:15:25.849Z,0
2017-08-01T01:16:06.389Z,0
2017-08-01T01:16:46.932Z,0
2017-08-01T01:17:27.465Z,0
2017-08-01T01:18:08.007Z,0
2017-08-01T01:18:48.542Z,0
2017-08-01T01:19:29.084Z,0
2017-08-01T01:20:09.631Z,0
2017-08-01T01:20:50.173Z,0
2017-08-01T01:21:30.714Z,0
2017-08-01T01:22:11.240Z,0
2017-08-01T01:22:51.778Z,0
2017-08-01T01:23:32.319Z,0
2017-08-01T01:24:12.884Z,0
2017-08-01T01:24:53.421Z,0
2017-08-01T01:25:33.952Z,0
2017-08-01T01:26:14.487Z,0
2017-08-01T01:26:55.017Z,0
2017-08-01T01:27:35.558Z,0
2017-08-01T01:28:16.096Z,0
2017-08-01T01:28:56.637Z,0
2017-08-01T01:29:37.174Z,0
2017-08-01T01:30:17.715Z,0
2017-08-01T01:30:58.250Z,0
2017-08-01T01:31:38.793Z,0
2017-08-01T01:32:19.319Z,0
2017-08-01T01:32:59.855Z,0
2017-08-01T01:33:40.392Z,0
2017-08-01T01:34:20.930Z,0
2017-08-01T01:35:01.470Z,0
2017-08-01T01:35:41.995Z,0
2017-08-01T01:36:22.528Z,0
2017-08-01T01:37:03.065Z,0
2017-08-01T01:37:43.609Z,0
2017-08-01T01:38:24.146Z,0
2017-08-01T01:39:04.688Z,0
2017-08-01T01:39:45.232Z,0
2017-08-01T01:40:25.786Z,0
2017-08-01T01:41:06.334Z,0
2017-08-01T01:41:46.874Z,0
2017-08-01T01:42:27.414Z,0
2017-08-01T01:43:07.958Z,0
2017-08-01T01:43:48.496Z,0
2017-08-01T01:44:29.035Z,0
2017-08-01T01:45:09.567Z,0
2017-08-01T01:45:50.110Z,0
2017-08-01T01:46:30.645Z,0
2017-08-01T01:47:11.178Z,0
2017-08-01T01:47:51.805Z,0
2017-08-01T01:48:32.343Z,0
2017-08-01T01:49:13.017Z,0
2017-08-01T01:49:53.544Z,0
2017-08-01T01:50:34.087Z,0
2017-08-01T01:51:14.623Z,0
2017-08-01T01:51:55.156Z,0
2017-08-01T01:52:35.681Z,0
2017-08-01T01:53:16.213Z,0
2017-08-01T01:53:56.747Z,0
2017-08-01T01:54:37.295Z,0
2017-08-01T01:55:17.843Z,0
2017-08-01T01:55:58.383Z,0
2017-08-01T01:56:38.916Z,0
2017-08-01T01:57:19.444Z,0
2017-08-01T01:57:59.982Z,0
2017-08-01T01:58:40.542Z,0
2017-08-01T01:59:21.059Z,0
2017-08-01T02:00:01.607Z,0
2017-08-01T02:00:42.141Z,0
2017-08-01T02:01:22.679Z,0
2017-08-01T02:02:03.223Z,0
2017-08-01T02:02:43.760Z,0
2017-08-01T02:03:24.300Z,0
2017-08-01T02:04:04.834Z,0
2017-08-01T02:04:45.382Z,0
2017-08-01T02:05:25.914Z,0
2017-08-01T02:06:06.438Z,0
2017-08-01T02:06:46.965Z,0
2017-08-01T02:07:27.504Z,0
2017-08-01T02:08:08.043Z,0
2017-08-01T02:08:48.578Z,0
2017-08-01T02:09:29.114Z,0
2017-08-01T02:10:09.653Z,0
2017-08-01T02:10:50.187Z,0
2017-08-01T02:11:30.727Z,0
2017-08-01T02:12:11.272Z,0
2017-08-01T02:12:51.801Z,0
2017-08-01T02:13:32.346Z,0
2017-08-01T02:14:12.887Z,0
2017-08-01T02:14:53.423Z,0
2017-08-01T02:15:33.957Z,0
2017-08-01T02:16:14.496Z,0
2017-08-01T02:16:55.057Z,0
2017-08-01T02:17:35.575Z,0
2017-08-01T02:18:16.177Z,0
2017-08-01T02:18:56.711Z,0
2017-08-01T02:19:37.239Z,0
2017-08-01T02:20:17.778Z,0
2017-08-01T02:20:58.320Z,0
2017-08-01T02:21:38.858Z,0
2017-08-01T02:22:19.394Z,0
2017-08-01T02:22:59.938Z,0
2017-08-01T02:23:40.476Z,0
2017-08-01T02:24:21.013Z,0
2017-08-01T02:25:01.553Z,0
2017-08-01T02:25:42.091Z,0
2017-08-01T02:26:22.632Z,0
2017-08-01T02:27:03.173Z,0
2017-08-01T02:27:43.714Z,0
2017-08-01T02:28:24.250Z,0
2017-08-01T02:29:04.790Z,0
2017-08-01T02:29:45.323Z,0
2017-08-01T02:30:25.851Z,0
2017-08-01T02:31:06.391Z,0
2017-08-01T02:31:46.939Z,0
2017-08-01T02:32:27.478Z,0
2017-08-01T02:33:08.018Z,0
2017-08-01T02:33:48.555Z,0
2017-08-01T02:34:29.090Z,0
2017-08-01T02:35:09.627Z,0
2017-08-01T02:35:50.162Z,0
2017-08-01T02:36:30.702Z,0
2017-08-01T02:37:11.243Z,0
2017-08-01T02:37:51.771Z,0
2017-08-01T02:38:32.297Z,0
2017-08-01T02:39:12.828Z,0
2017-08-01T02:39:53.411Z,0
2017-08-01T02:40:33.951Z,0
2017-08-01T02:41:14.509Z,0
2017-08-01T02:41:55.027Z,0
2017-08-01T02:42:35.565Z,0
2017-08-01T02:43:16.105Z,0
2017-08-01T02:43:56.650Z,0
2017-08-01T02:44:37.177Z,0
2017-08-01T02:45:17.735Z,0
2017-08-01T02:45:58.277Z,0
2017-08-01T02:46:38.800Z,0
2017-08-01T02:47:19.347Z,0
2017-08-01T02:47:59.870Z,0
2017-08-01T02:48:40.412Z,0
2017-08-01T02:49:20.953Z,0
2017-08-01T02:50:01.497Z,0
2017-08-01T02:50:42.042Z,0
2017-08-01T02:51:22.575Z,0
2017-08-01T02:52:03.122Z,0
2017-08-01T02:52:43.645Z,0
2017-08-01T02:53:24.179Z,0
2017-08-01T02:54:04.712Z,0
2017-08-01T02:54:45.245Z,0
2017-08-01T02:55:25.776Z,0
2017-08-01T02:56:06.314Z,0
2017-08-01T02:56:46.847Z,0
2017-08-01T02:57:27.382Z,0
2017-08-01T02:58:07.914Z,0
2017-08-01T02:58:48.454Z,0
2017-08-01T02:59:28.989Z,0
2017-08-01T03:00:09.526Z,0
2017-08-01T03:00:50.059Z,0
2017-08-01T03:01:30.601Z,0
2017-08-01T03:02:11.136Z,0
2017-08-01T03:02:51.669Z,0
2017-08-01T03:03:32.206Z,0
2017-08-01T03:04:12.743Z,0
2017-08-01T03:04:53.281Z,0
2017-08-01T03:05:33.821Z,0
2017-08-01T03:06:14.362Z,0
2017-08-01T03:06:54.895Z,0
2017-08-01T03:07:35.435Z,0
2017-08-01T03:08:15.973Z,0
2017-08-01T03:08:56.504Z,0
2017-08-01T03:09:37.032Z,0
2017-08-01T03:10:17.565Z,0
2017-08-01T03:10:58.088Z,0
2017-08-01T03:11:38.631Z,0
2017-08-01T03:12:19.168Z,0
2017-08-01T03:12:59.713Z,0
2017-08-01T03:13:40.250Z,0
2017-08-01T03:14:20.791Z,0
2017-08-01T03:15:01.332Z,0
2017-08-01T03:15:41.872Z,0
2017-08-01T03:16:22.404Z,0
2017-08-01T03:17:02.944Z,0
2017-08-01T03:17:43.480Z,0
2017-08-01T03:18:24.006Z,0
2017-08-01T03:19:04.549Z,0
2017-08-01T03:19:45.074Z,0
2017-08-01T03:20:25.618Z,0
2017-08-01T03:21:06.155Z,0
2017-08-01T03:21:46.690Z,0
2017-08-01T03:22:27.232Z,0
2017-08-01T03:23:07.760Z,0
2017-08-01T03:23:48.298Z,0
2017-08-01T03:24:28.838Z,0
2017-08-01T03:25:09.372Z,0
2017-08-01T03:25:49.908Z,0
2017-08-01T03:26:30.447Z,0
2017-08-01T03:27:10.978Z,0
2017-08-01T03:27:51.506Z,0
2017-08-01T03:28:32.043Z,0
2017-08-01T03:29:12.567Z,0
2017-08-01T03:29:53.131Z,0
2017-08-01T03:30:33.664Z,0
2017-08-01T03:31:14.197Z,0
2017-08-01T03:31:54.742Z,0
2017-08-01T03:32:35.277Z,0
2017-08-01T03:33:15.817Z,0
2017-08-01T03:33:56.361Z,0
2017-08-01T03:34:36.885Z,0
2017-08-01T03:35:17.416Z,0
2017-08-01T03:35:57.953Z,0
2017-08-01T03:36:38.474Z,0
2017-08-01T03:37:19.030Z,0
2017-08-01T03:37:59.587Z,0
2017-08-01T03:38:40.133Z,4
2017-08-01T03:39:20.644Z,4
2017-08-01T03:40:01.184Z,4
2017-08-01T03:40:41.724Z,4
2017-08-01T03:41:22.261Z,4
2017-08-01T03:42:02.799Z,4
2017-08-01T03:42:43.326Z,4
2017-08-01T03:43:23.874Z,4
2017-08-01T03:44:04.397Z,8
2017-08-01T03:44:44.921Z,8
2017-08-01T03:45:25.458Z,12
2017-08-01T03:46:06.001Z,8
2017-08-01T03:46:46.544Z,12
2017-08-01T03:47:27.087Z,16
2017-08-01T03:48:07.619Z,16
2017-08-01T03:48:48.150Z,16
2017-08-01T03:49:28.682Z,20
2017-08-01T03:50:09.218Z,20
2017-08-01T03:50:49.757Z,16
2017-08-01T03:51:30.298Z,20
2017-08-01T03:52:10.835Z,24
2017-08-01T03:52:51.377Z,24
2017-08-01T03:53:32.039Z,28
2017-08-01T03:54:12.717Z,28
2017-08-01T03:54:53.251Z,28
2017-08-01T03:55:33.785Z,32
2017-08-01T03:56:14.323Z,32
2017-08-01T03:56:54.860Z,36
2017-08-01T03:57:35.402Z,40
2017-08-01T03:58:15.934Z,48
2017-08-01T03:58:56.472Z,48
2017-08-01T03:59:37.025Z,48
2017-08-01T04:00:17.563Z,48
2017-08-01T04:00:58.107Z,52
2017-08-01T04:01:38.644Z,60
2017-08-01T04:02:19.188Z,64
2017-08-01T04:02:59.730Z,68
2017-08-01T04:03:40.269Z,68
2017-08-01T04:04:20.809Z,80
2017-08-01T04:05:01.339Z,88
2017-08-01T04:05:41.876Z,104
2017-08-01T04:06:22.412Z,116
2017-08-01T04:07:02.947Z,128
2017-08-01T04:07:43.495Z,140
2017-08-01T04:08:24.009Z,152
2017-08-01T04:09:04.543Z,164
2017-08-01T04:09:45.081Z,180
2017-08-01T04:10:25.622Z,192
2017-08-01T04:11:06.158Z,204
2017-08-01T04:11:46.682Z,216
2017-08-01T04:12:27.208Z,224
2017-08-01T04:13:07.746Z,232
2017-08-01T04:13:48.286Z,228
2017-08-01T04:14:29.626Z,236
2017-08-01T04:15:10.041Z,232
2017-08-01T04:15:50.524Z,232
2017-08-01T04:16:31.043Z,232
2017-08-01T04:17:11.542Z,224
2017-08-01T04:17:52.058Z,220
2017-08-01T04:18:32.595Z,212
2017-08-01T04:19:13.115Z,196
2017-08-01T04:19:53.608Z,172
2017-08-01T04:20:34.110Z,160
2017-08-01T04:21:14.641Z,156
2017-08-01T04:21:55.173Z,156
2017-08-01T04:22:35.701Z,164
2017-08-01T04:23:16.265Z,180
2017-08-01T04:23:56.920Z,192
2017-08-01T04:24:37.424Z,208
2017-08-01T04:25:17.926Z,220
2017-08-01T04:25:58.460Z,236
2017-08-01T04:26:38.968Z,244
2017-08-01T04:27:19.473Z,232
2017-08-01T04:28:00.019Z,212
2017-08-01T04:28:40.527Z,200
2017-08-01T04:29:21.059Z,192
2017-08-01T04:30:01.586Z,188
2017-08-01T04:30:42.124Z,172
2017-08-01T04:31:22.626Z,160
2017-08-01T04:32:03.157Z,152
2017-08-01T04:32:43.675Z,148
2017-08-01T04:33:24.188Z,148
2017-08-01T04:34:04.697Z,144
2017-08-01T04:34:45.208Z,156
2017-08-01T04:35:25.721Z,168
2017-08-01T04:36:06.250Z,188
2017-08-01T04:36:46.768Z,212
2017-08-01T04:37:27.279Z,224
2017-08-01T04:38:07.798Z,220
2017-08-01T04:38:48.311Z,212
2017-08-01T04:39:28.822Z,212
2017-08-01T04:40:09.337Z,212
2017-08-01T04:40:49.844Z,224
2017-08-01T04:41:30.358Z,228
2017-08-01T04:42:10.874Z,232
2017-08-01T04:42:51.701Z,268
2017-08-01T04:43:32.404Z,300
2017-08-01T04:44:13.046Z,320
2017-08-01T04:44:53.820Z,332
2017-08-01T04:45:35.519Z,340
2017-08-01T04:46:16.347Z,332
2017-08-01T04:46:57.191Z,320
2017-08-01T04:47:38.071Z,300
2017-08-01T04:48:18.937Z,288
2017-08-01T04:48:59.734Z,284
2017-08-01T04:49:40.470Z,296
2017-08-01T04:50:21.065Z,316
2017-08-01T04:51:01.738Z,380
2017-08-01T04:51:42.331Z,476
2017-08-01T04:52:22.858Z,548
2017-08-01T04:53:03.369Z,580
2017-08-01T04:53:43.987Z,592
2017-08-01T04:54:24.580Z,584
2017-08-01T04:55:06.968Z,572
2017-08-01T04:55:47.474Z,580
2017-08-01T04:56:27.997Z,620
2017-08-01T04:57:08.530Z,708
2017-08-01T04:57:49.044Z,808
2017-08-01T04:58:29.611Z,860
2017-08-01T04:59:10.118Z,840
2017-08-01T04:59:50.651Z,792
2017-08-01T05:00:31.184Z,744
2017-08-01T05:01:11.706Z,728
2017-08-01T05:01:52.223Z,716
2017-08-01T05:02:32.746Z,664
2017-08-01T05:03:13.306Z,620
2017-08-01T05:03:53.832Z,632
2017-08-01T05:04:34.363Z,652
2017-08-01T05:05:14.877Z,688
2017-08-01T05:05:55.414Z,752
2017-08-01T05:06:35.935Z,844
2017-08-01T05:07:16.459Z,932
2017-08-01T05:07:57.076Z,992
2017-08-01T05:08:37.508Z,1064
2017-08-01T05:09:18.142Z,1120
2017-08-01T05:09:58.579Z,964
2017-08-01T05:10:39.088Z,896
2017-08-01T05:11:19.607Z,768
2017-08-01T05:12:00.140Z,720
2017-08-01T05:12:40.672Z,736
2017-08-01T05:13:21.193Z,760
2017-08-01T05:14:01.711Z,788
2017-08-01T05:14:42.241Z,816
2017-08-01T05:15:22.766Z,836
2017-08-01T05:16:03.287Z,860
2017-08-01T05:16:43.816Z,864
2017-08-01T05:17:24.356Z,868
2017-08-01T05:18:04.867Z,884
2017-08-01T05:18:45.385Z,884
2017-08-01T05:19:25.908Z,888
2017-08-01T05:20:06.439Z,904
2017-08-01T05:20:46.969Z,932
2017-08-01T05:21:27.485Z,984
2017-08-01T05:22:08.007Z,1032
2017-08-01T05:22:48.572Z,1064
2017-08-01T05:23:29.064Z,1076
2017-08-01T05:24:09.617Z,1084
2017-08-01T05:24:50.139Z,1072
2017-08-01T05:25:30.670Z,1060
2017-08-01T05:26:11.202Z,1048
2017-08-01T05:26:51.723Z,1064
2017-08-01T05:27:32.243Z,1084
2017-08-01T05:28:12.776Z,1088
2017-08-01T05:28:53.306Z,1092
2017-08-01T05:29:33.800Z,1088
2017-08-01T05:30:14.337Z,1064
2017-08-01T05:30:54.869Z,1032
2017-08-01T05:31:35.392Z,992
2017-08-01T05:32:15.881Z,948
2017-08-01T05:32:56.446Z,912
2017-08-01T05:33:36.975Z,884
2017-08-01T05:34:17.513Z,848
2017-08-01T05:34:58.052Z,816
2017-08-01T05:35:38.560Z,812
2017-08-01T05:36:19.062Z,820
2017-08-01T05:36:59.582Z,840
2017-08-01T05:37:40.123Z,872
2017-08-01T05:38:20.643Z,912
2017-08-01T05:39:01.183Z,968
2017-08-01T05:39:41.696Z,1048
2017-08-01T05:40:22.225Z,1144
2017-08-01T05:41:02.748Z,1240
2017-08-01T05:41:43.274Z,1348
2017-08-01T05:42:23.883Z,1488
2017-08-01T05:43:04.431Z,1644
2017-08-01T05:43:44.949Z,1792
2017-08-01T05:44:25.485Z,1900
2017-08-01T05:45:06.024Z,2024
2017-08-01T05:45:46.555Z,2108
2017-08-01T05:46:27.081Z,2024
2017-08-01T05:47:07.597Z,1716
2017-08-01T05:47:48.138Z,1324
2017-08-01T05:48:28.674Z,1284
2017-08-01T05:49:09.212Z,1356
2017-08-01T05:49:49.733Z,1528
2017-08-01T05:50:30.251Z,1740
2017-08-01T05:51:10.786Z,1916
2017-08-01T05:51:51.303Z,2028
2017-08-01T05:52:31.835Z,2032
2017-08-01T05:53:12.355Z,1988
2017-08-01T05:53:52.876Z,1944
2017-08-01T05:54:33.411Z,1868
2017-08-01T05:55:13.915Z,1800
2017-08-01T05:55:54.451Z,1740
2017-08-01T05:56:34.970Z,1708
2017-08-01T05:57:15.488Z,1684
2017-08-01T05:57:55.999Z,1636
2017-08-01T05:58:36.518Z,1576
2017-08-01T05:59:17.025Z,1520
2017-08-01T05:59:57.542Z,1472
2017-08-01T06:00:38.070Z,1432
2017-08-01T06:01:18.598Z,1380
2017-08-01T06:01:59.122Z,1312
2017-08-01T06:02:39.651Z,1232
2017-08-01T06:03:20.164Z,1152
2017-08-01T06:04:00.666Z,1076
2017-08-01T06:04:41.188Z,1016
2017-08-01T06:05:21.711Z,964
2017-08-01T06:06:02.229Z,928
2017-08-01T06:06:42.746Z,912
2017-08-01T06:07:23.281Z,920
2017-08-01T06:08:03.807Z,948
2017-08-01T06:08:44.327Z,992
2017-08-01T06:09:24.849Z,1032
2017-08-01T06:10:05.427Z,1072
2017-08-01T06:10:45.944Z,1096
2017-08-01T06:11:26.499Z,1108
2017-08-01T06:12:07.035Z,1100
2017-08-01T06:12:47.575Z,1092
2017-08-01T06:13:28.106Z,1080
2017-08-01T06:14:08.634Z,1072
2017-08-01T06:14:49.162Z,1056
2017-08-01T06:15:29.695Z,1048
2017-08-01T06:16:10.250Z,1056
2017-08-01T06:16:50.786Z,1096
2017-08-01T06:17:31.333Z,1152
2017-08-01T06:18:11.873Z,1228
2017-08-01T06:18:52.398Z,1308
2017-08-01T06:19:32.918Z,1396
2017-08-01T06:20:13.450Z,1456
2017-08-01T06:20:53.969Z,1508
2017-08-01T06:21:34.501Z,1568
2017-08-01T06:22:15.023Z,1640
2017-08-01T06:22:55.552Z,1720
2017-08-01T06:23:36.103Z,1784
2017-08-01T06:24:16.663Z,1808
2017-08-01T06:24:57.197Z,1812
2017-08-01T06:25:37.742Z,1816
2017-08-01T06:26:18.267Z,1796
2017-08-01T06:26:58.804Z,1800
2017-08-01T06:27:39.359Z,1832
2017-08-01T06:28:19.917Z,1888
2017-08-01T06:29:00.423Z,1924
2017-08-01T06:29:40.965Z,1920
2017-08-01T06:30:21.473Z,1908
2017-08-01T06:31:01.974Z,1928
2017-08-01T06:31:42.513Z,1980
2017-08-01T06:32:23.039Z,2052
2017-08-01T06:33:03.560Z,2132
2017-08-01T06:33:44.075Z,2220
2017-08-01T06:34:24.586Z,2248
2017-08-01T06:35:05.157Z,2256
2017-08-01T06:35:45.699Z,2228
2017-08-01T06:36:26.304Z,2108
2017-08-01T06:37:06.819Z,1928
2017-08-01T06:37:47.322Z,1732
2017-08-01T06:38:27.875Z,1588
2017-08-01T06:39:08.413Z,1524
2017-08-01T06:39:48.954Z,1496
2017-08-01T06:40:29.483Z,1480
2017-08-01T06:41:10.013Z,1456
2017-08-01T06:41:50.546Z,1436
2017-08-01T06:42:31.063Z,1432
2017-08-01T06:43:11.587Z,1452
2017-08-01T06:43:52.114Z,1484
2017-08-01T06:44:32.648Z,1524
2017-08-01T06:45:13.176Z,1568
2017-08-01T06:45:53.721Z,1628
2017-08-01T06:46:34.235Z,1656
2017-08-01T06:47:14.784Z,1672
2017-08-01T06:47:55.306Z,1700
2017-08-01T06:48:35.820Z,1692
2017-08-01T06:49:16.346Z,1632
2017-08-01T06:49:56.863Z,1508
2017-08-01T06:50:37.442Z,1320
2017-08-01T06:51:17.957Z,1228
2017-08-01T06:51:58.491Z,1252
2017-08-01T06:52:39.021Z,1380
2017-08-01T06:53:19.541Z,1516
2017-08-01T06:54:00.045Z,1632
2017-08-01T06:54:40.582Z,1752
2017-08-01T06:55:21.090Z,1828
2017-08-01T06:56:01.627Z,1876
2017-08-01T06:56:42.162Z,1900
2017-08-01T06:57:22.679Z,1932
2017-08-01T06:58:03.196Z,1972
2017-08-01T06:58:43.713Z,2024
2017-08-01T06:59:24.262Z,2048
2017-08-01T07:00:04.788Z,2064
2017-08-01T07:00:45.389Z,2108
2017-08-01T07:01:25.906Z,2216
2017-08-01T07:02:06.428Z,2308
2017-08-01T07:02:46.942Z,2320
2017-08-01T07:03:27.479Z,2284
2017-08-01T07:04:08.067Z,2252
2017-08-01T07:04:48.609Z,2268
2017-08-01T07:05:29.141Z,2312
2017-08-01T07:06:09.687Z,2328
2017-08-01T07:06:50.252Z,2312
2017-08-01T07:07:30.792Z,2312
2017-08-01T07:08:11.339Z,2312
2017-08-01T07:08:51.854Z,2316
2017-08-01T07:09:32.407Z,2348
2017-08-01T07:10:12.901Z,2332
2017-08-01T07:10:53.451Z,2248
2017-08-01T07:11:33.973Z,2140
2017-08-01T07:12:14.514Z,2072
2017-08-01T07:12:55.037Z,2016
2017-08-01T07:13:35.635Z,1888
2017-08-01T07:14:16.146Z,1740
2017-08-01T07:14:56.675Z,1656
2017-08-01T07:15:37.204Z,1680
2017-08-01T07:16:17.770Z,1780
2017-08-01T07:16:58.289Z,1868
2017-08-01T07:17:38.812Z,1908
2017-08-01T07:18:19.371Z,1992
2017-08-01T07:18:59.896Z,2168
2017-08-01T07:19:40.418Z,2396
2017-08-01T07:20:20.930Z,2620
2017-08-01T07:21:01.449Z,2780
2017-08-01T07:21:41.979Z,2896
2017-08-01T07:22:22.512Z,2892
2017-08-01T07:23:03.031Z,2728
2017-08-01T07:23:43.566Z,2680
2017-08-01T07:24:24.151Z,2704
2017-08-01T07:25:04.669Z,2508
2017-08-01T07:25:45.227Z,2256
2017-08-01T07:26:25.775Z,2120
2017-08-01T07:27:06.279Z,2028
2017-08-01T07:27:46.805Z,1868
2017-08-01T07:28:27.369Z,1704
2017-08-01T07:29:07.898Z,1584
2017-08-01T07:29:48.435Z,1544
2017-08-01T07:30:28.971Z,1572
2017-08-01T07:31:09.488Z,1628
2017-08-01T07:31:50.038Z,1668
2017-08-01T07:32:30.570Z,1668
2017-08-01T07:33:11.116Z,1796
2017-08-01T07:33:51.664Z,2056
2017-08-01T07:34:32.191Z,2256
2017-08-01T07:35:12.716Z,2244
2017-08-01T07:35:53.238Z,2068
2017-08-01T07:36:33.753Z,1840
2017-08-01T07:37:14.277Z,1620
2017-08-01T07:37:54.791Z,1428
2017-08-01T07:38:35.330Z,1312
2017-08-01T07:39:15.859Z,1280
2017-08-01T07:39:56.385Z,1264
2017-08-01T07:40:36.912Z,1192
2017-08-01T07:41:17.451Z,1108
2017-08-01T07:41:57.980Z,1036
2017-08-01T07:42:38.528Z,1028
2017-08-01T07:43:19.056Z,1116
2017-08-01T07:43:59.588Z,1296
2017-08-01T07:44:40.139Z,1476
2017-08-01T07:45:20.666Z,1644
2017-08-01T07:46:01.224Z,1816
2017-08-01T07:46:41.741Z,1936
2017-08-01T07:47:22.263Z,1964
2017-08-01T07:48:02.772Z,1840
2017-08-01T07:48:43.296Z,1632
2017-08-01T07:49:23.834Z,1444
2017-08-01T07:50:04.335Z,1324
2017-08-01T07:50:44.864Z,1240
2017-08-01T07:51:25.383Z,1200
2017-08-01T07:52:05.919Z,1268
2017-08-01T07:52:46.449Z,1260
2017-08-01T07:53:26.966Z,1216
2017-08-01T07:54:07.493Z,1156
2017-08-01T07:54:48.022Z,1080
2017-08-01T07:55:28.587Z,964
2017-08-01T07:56:09.140Z,864
2017-08-01T07:56:49.678Z,828
2017-08-01T07:57:30.212Z,872
2017-08-01T07:58:10.781Z,1016
2017-08-01T07:58:51.337Z,1032
2017-08-01T07:59:31.879Z,928
2017-08-01T08:00:12.441Z,856
2017-08-01T08:00:52.957Z,840
2017-08-01T08:01:33.518Z,916
2017-08-01T08:02:14.051Z,988
2017-08-01T08:02:54.621Z,912
2017-08-01T08:03:35.203Z,704
2017-08-01T08:04:15.718Z,584
2017-08-01T08:04:56.244Z,552
2017-08-01T08:05:36.818Z,560
2017-08-01T08:06:17.322Z,512
2017-08-01T08:06:57.881Z,436
2017-08-01T08:07:38.413Z,336
2017-08-01T08:08:18.952Z,316
2017-08-01T08:08:59.493Z,316
2017-08-01T08:09:40.032Z,336
2017-08-01T08:10:20.572Z,324
2017-08-01T08:11:01.127Z,300
2017-08-01T08:11:41.686Z,300
2017-08-01T08:12:22.229Z,328
2017-08-01T08:13:02.765Z,404
2017-08-01T08:13:43.308Z,460
2017-08-01T08:14:23.865Z,488
2017-08-01T08:15:04.414Z,432
2017-08-01T08:15:44.956Z,348
2017-08-01T08:16:25.495Z,292
2017-08-01T08:17:06.026Z,256
2017-08-01T08:17:46.558Z,232
2017-08-01T08:18:27.110Z,272
2017-08-01T08:19:07.650Z,340
2017-08-01T08:19:48.179Z,404
2017-08-01T08:20:28.757Z,424
2017-08-01T08:21:09.295Z,412
2017-08-01T08:21:49.829Z,444
2017-08-01T08:22:30.367Z,484
2017-08-01T08:23:10.929Z,512
2017-08-01T08:23:51.469Z,512
2017-08-01T08:24:31.998Z,528
2017-08-01T08:25:12.567Z,560
2017-08-01T08:25:53.094Z,612
2017-08-01T08:26:33.618Z,648
2017-08-01T08:27:14.143Z,616
2017-08-01T08:27:54.688Z,592
2017-08-01T08:28:35.223Z,560
2017-08-01T08:29:15.772Z,524
2017-08-01T08:29:56.312Z,548
2017-08-01T08:30:36.902Z,580
2017-08-01T08:31:17.450Z,600
2017-08-01T08:31:58.035Z,644
2017-08-01T08:32:38.574Z,728
2017-08-01T08:33:19.115Z,820
2017-08-01T08:33:59.649Z,956
2017-08-01T08:34:40.207Z,1108
2017-08-01T08:35:20.742Z,1284
2017-08-01T08:36:01.283Z,1444
2017-08-01T08:36:41.833Z,1612
2017-08-01T08:37:22.335Z,1780
2017-08-01T08:38:02.870Z,1908
2017-08-01T08:38:43.412Z,2112
2017-08-01T08:39:23.949Z,2204
2017-08-01T08:40:04.485Z,2248
2017-08-01T08:40:45.006Z,2340
2017-08-01T08:41:25.537Z,2456
2017-08-01T08:42:06.085Z,2588
2017-08-01T08:42:46.628Z,2708
2017-08-01T08:43:27.180Z,2860
2017-08-01T08:44:07.699Z,3100
2017-08-01T08:44:48.237Z,3448
2017-08-01T08:45:28.761Z,3804
2017-08-01T08:46:09.352Z,4140
2017-08-01T08:46:49.893Z,4424
2017-08-01T08:47:30.444Z,4644
2017-08-01T08:48:10.960Z,4864
2017-08-01T08:48:51.502Z,5156
2017-08-01T08:49:32.038Z,5448
2017-08-01T08:50:12.581Z,5772
2017-08-01T08:50:53.120Z,6164
2017-08-01T08:51:33.678Z,6596
2017-08-01T08:52:14.232Z,7032
2017-08-01T08:52:54.773Z,7484
2017-08-01T08:53:35.313Z,7700
2017-08-01T08:54:15.842Z,6900
2017-08-01T08:54:56.364Z,5588
2017-08-01T08:55:36.899Z,4788
2017-08-01T08:56:17.439Z,3868
2017-08-01T08:56:57.987Z,3292
2017-08-01T08:57:38.529Z,3064
2017-08-01T08:58:19.066Z,3072
2017-08-01T08:58:59.603Z,3164
2017-08-01T08:59:40.133Z,3360
2017-08-01T09:00:20.668Z,3612
2017-08-01T09:01:01.324Z,3648
2017-08-01T09:01:41.867Z,3524
2017-08-01T09:02:22.403Z,3544
2017-08-01T09:03:02.945Z,3668
2017-08-01T09:03:43.505Z,3912
2017-08-01T09:04:24.022Z,4480
2017-08-01T09:05:04.562Z,4992
2017-08-01T09:05:45.104Z,5236
2017-08-01T09:06:25.643Z,5732
2017-08-01T09:07:06.181Z,6464
2017-08-01T09:07:46.722Z,7232
2017-08-01T09:08:27.272Z,8428
2017-08-01T09:09:07.801Z,9400
2017-08-01T09:09:48.343Z,10240
2017-08-01T09:10:28.893Z,15164
2017-08-01T09:11:09.431Z,13692
2017-08-01T09:11:49.976Z,13856
2017-08-01T09:12:30.557Z,14508
2017-08-01T09:13:11.096Z,16716
2017-08-01T09:13:51.635Z,19328
2017-08-01T09:14:32.164Z,20800
2017-08-01T09:15:12.700Z,28704
2017-08-01T09:15:53.221Z,31776
2017-08-01T09:16:33.762Z,34976
2017-08-01T09:17:14.308Z,34816
2017-08-01T09:17:54.852Z,29728
2017-08-01T09:18:35.395Z,25728
2017-08-01T09:19:15.924Z,17472
2017-08-01T09:19:56.468Z,14444
2017-08-01T09:20:36.996Z,14068
2017-08-01T09:21:17.534Z,13340
2017-08-01T09:21:58.072Z,12404
2017-08-01T09:22:38.614Z,11704
2017-08-01T09:23:19.156Z,11908
2017-08-01T09:23:59.684Z,12504
2017-08-01T09:24:40.222Z,12656
2017-08-01T09:25:20.762Z,11716
2017-08-01T09:26:01.290Z,11292
2017-08-01T09:26:41.828Z,13896
2017-08-01T09:27:22.368Z,20928